Time;durP1;ratioP1;P1;durP2;ratioP2;P2;SDS_P1;SDS_P2;PMS_P1;PMS_P2;Temp;Humidity;BMP_temperature;BMP_pressure;BME280_temperature;BME280_humidity;BME280_pressure;Samples;Min_cycle;Max_cycle;Signal;HPM_P1;HPM_P2
2022/04/15 00:01:53;;;;;;;4.83;4.33;;;11.90;99.90;;;;;;5047296;28;20445;-74
2022/04/15 00:04:19;;;;;;;8.23;4.97;;;11.90;99.90;;;;;;5042883;28;20466;-73
2022/04/15 00:06:46;;;;;;;5.97;4.73;;;11.80;99.90;;;;;;5051736;28;20883;-74
2022/04/15 00:09:13;;;;;;;6.47;4.30;;;11.80;99.90;;;;;;5041506;28;20503;-74
2022/04/15 00:11:39;;;;;;;5.97;3.70;;;11.80;99.90;;;;;;5039853;28;20539;-74
2022/04/15 00:14:06;;;;;;;6.97;4.23;;;11.70;99.90;;;;;;5043678;28;20533;-74
2022/04/15 00:16:34;;;;;;;6.60;5.43;;;11.70;99.90;;;;;;5042213;28;20471;-74
2022/04/15 00:19:01;;;;;;;7.80;5.00;;;11.70;99.90;;;;;;5048442;28;20456;-73
2022/04/15 00:21:28;;;;;;;9.33;4.60;;;11.50;99.90;;;;;;5059484;28;20433;-75
2022/04/15 00:23:56;;;;;;;4.13;3.43;;;11.30;99.90;;;;;;5059064;28;21858;-74
2022/04/15 00:26:23;;;;;;;6.27;5.60;;;11.20;99.90;;;;;;5046319;28;20454;-72
2022/04/15 00:28:52;;;;;;;10.70;4.43;;;11.30;99.90;;;;;;5057850;28;20433;-73
2022/04/15 00:31:19;;;;;;;9.53;5.33;;;11.50;99.90;;;;;;5052075;28;20463;-73
2022/04/15 00:33:47;;;;;;;9.53;4.90;;;11.50;99.90;;;;;;5047923;28;20471;-73
2022/04/15 00:36:13;;;;;;;7.53;4.43;;;11.30;99.90;;;;;;5048210;28;20871;-73
2022/04/15 00:38:40;;;;;;;4.30;3.57;;;11.30;99.90;;;;;;5045421;28;20452;-73
2022/04/15 00:41:07;;;;;;;5.27;3.93;;;11.30;99.90;;;;;;5052180;28;21056;-73
2022/04/15 00:43:33;;;;;;;5.07;4.07;;;11.20;99.90;;;;;;5048238;28;20490;-74
2022/04/15 00:46:07;;;;;;;7.40;4.10;;;11.20;99.90;;;;;;5049880;28;21221;-75
2022/04/15 00:48:35;;;;;;;6.50;3.80;;;11.10;99.90;;;;;;5052400;28;20467;-75
2022/04/15 00:51:03;;;;;;;8.07;4.60;;;11.20;99.90;;;;;;5042722;28;20426;-75
2022/04/15 00:53:31;;;;;;;8.07;5.10;;;11.10;99.90;;;;;;5046160;28;20453;-74
2022/04/15 00:56:01;;;;;;;5.00;4.20;;;11.10;99.90;;;;;;5040689;28;20544;-75
2022/04/15 00:58:29;;;;;;;6.13;3.93;;;11.10;99.90;;;;;;5042958;28;20540;-75
2022/04/15 01:00:57;;;;;;;5.40;3.77;;;11.00;99.90;;;;;;5044087;28;20459;-74
2022/04/15 01:03:24;;;;;;;12.00;5.50;;;11.00;99.90;;;;;;5042380;28;20824;-75
2022/04/15 01:05:56;;;;;;;6.03;4.30;;;10.90;99.90;;;;;;5045135;28;20426;-73
2022/04/15 01:08:27;;;;;;;8.50;5.10;;;11.00;99.90;;;;;;5050024;28;20516;-74
2022/04/15 01:10:57;;;;;;;15.13;5.97;;;11.00;99.90;;;;;;5047790;28;20493;-74
2022/04/15 01:13:25;;;;;;;5.13;4.63;;;11.00;99.90;;;;;;5042619;28;20478;-75
2022/04/15 01:15:55;;;;;;;7.43;5.10;;;10.90;99.90;;;;;;5043627;28;20458;-74
2022/04/15 01:18:21;;;;;;;13.33;5.00;;;10.90;99.90;;;;;;5043947;28;21180;-74
2022/04/15 01:20:49;;;;;;;6.53;5.03;;;11.00;99.90;;;;;;5039916;28;20440;-74
2022/04/15 01:23:18;;;;;;;4.70;3.30;;;11.00;99.90;;;;;;5040918;28;20476;-73
2022/04/15 01:25:44;;;;;;;5.53;5.00;;;10.80;99.90;;;;;;5038441;28;20863;-73
2022/04/15 01:28:11;;;;;;;6.63;4.90;;;10.70;99.90;;;;;;5045753;28;20898;-73
2022/04/15 01:30:38;;;;;;;6.47;4.80;;;10.70;99.90;;;;;;5040526;28;20483;-73
2022/04/15 01:33:05;;;;;;;6.50;4.10;;;10.90;99.90;;;;;;5038952;28;21124;-73
2022/04/15 01:35:33;;;;;;;7.33;5.37;;;10.80;99.90;;;;;;5040320;28;21007;-73
2022/04/15 01:38:02;;;;;;;5.17;4.47;;;10.80;99.90;;;;;;5041164;28;20651;-74
2022/04/15 01:40:30;;;;;;;9.27;4.07;;;10.70;99.90;;;;;;5043921;28;20567;-74
2022/04/15 01:42:57;;;;;;;8.50;3.30;;;10.70;99.90;;;;;;5046368;28;20479;-74
2022/04/15 01:45:23;;;;;;;8.87;5.87;;;10.60;99.90;;;;;;5041493;28;20477;-73
2022/04/15 01:47:52;;;;;;;10.40;4.63;;;10.50;99.90;;;;;;5041165;28;20462;-73
2022/04/15 01:50:19;;;;;;;5.37;4.30;;;10.40;99.90;;;;;;5041820;28;20662;-72
2022/04/15 01:52:45;;;;;;;5.73;4.07;;;10.40;99.90;;;;;;5039509;28;20466;-74
2022/04/15 01:55:12;;;;;;;5.20;4.47;;;10.30;99.90;;;;;;5044463;28;20457;-74
2022/04/15 01:57:40;;;;;;;15.80;4.20;;;10.30;99.90;;;;;;5039396;28;20921;-74
2022/04/15 02:00:08;;;;;;;9.70;4.77;;;10.30;99.90;;;;;;5041052;28;20444;-74
2022/04/15 02:02:35;;;;;;;6.60;5.07;;;10.40;99.90;;;;;;5036199;28;20561;-74
2022/04/15 02:05:01;;;;;;;8.43;5.00;;;10.20;99.90;;;;;;5035831;28;20460;-74
2022/04/15 02:07:28;;;;;;;5.00;4.10;;;10.10;99.90;;;;;;5041996;28;20461;-74
2022/04/15 02:09:55;;;;;;;4.57;3.80;;;10.20;99.90;;;;;;5036379;28;20978;-73
2022/04/15 02:12:21;;;;;;;7.77;4.30;;;10.30;99.90;;;;;;5040890;28;20487;-73
2022/04/15 02:14:49;;;;;;;7.90;6.10;;;10.30;99.90;;;;;;5042493;28;20504;-72
2022/04/15 02:17:17;;;;;;;8.60;4.37;;;10.30;99.90;;;;;;5045406;28;20461;-76
2022/04/15 02:19:44;;;;;;;18.20;5.17;;;10.20;99.90;;;;;;5047159;28;20517;-74
2022/04/15 02:22:10;;;;;;;5.23;3.70;;;10.20;99.90;;;;;;5039109;28;21034;-74
2022/04/15 02:24:37;;;;;;;5.80;4.10;;;10.20;99.90;;;;;;5039055;28;20455;-72
2022/04/15 02:27:04;;;;;;;13.03;4.20;;;10.20;99.90;;;;;;5052405;28;20429;-73
2022/04/15 02:29:32;;;;;;;5.67;4.07;;;10.20;99.90;;;;;;5038512;28;21316;-73
2022/04/15 02:32:00;;;;;;;7.97;4.83;;;10.10;99.90;;;;;;5036200;28;20482;-72
2022/04/15 02:34:26;;;;;;;7.77;4.47;;;10.00;99.90;;;;;;5054860;28;20617;-74
2022/04/15 02:36:53;;;;;;;7.67;5.10;;;10.00;99.90;;;;;;5055075;28;20789;-72
2022/04/15 02:39:20;;;;;;;5.60;4.37;;;10.10;99.90;;;;;;5060276;28;20878;-74
2022/04/15 02:41:46;;;;;;;14.33;4.80;;;10.00;99.90;;;;;;5044744;28;20561;-74
2022/04/15 02:44:13;;;;;;;7.73;4.20;;;9.90;99.90;;;;;;5033701;22;20606;-71
2022/04/15 02:46:40;;;;;;;5.33;4.20;;;9.70;99.90;;;;;;5001301;28;21583;-71
2022/04/15 02:49:08;;;;;;;8.17;5.70;;;9.60;99.90;;;;;;5003650;28;20884;-72
2022/04/15 02:51:36;;;;;;;9.77;5.40;;;9.60;99.90;;;;;;5002112;28;20857;-70
2022/04/15 02:54:02;;;;;;;7.87;4.17;;;9.70;99.90;;;;;;5001715;28;20456;-72
2022/04/15 02:56:30;;;;;;;6.13;4.57;;;9.80;99.90;;;;;;5001422;28;20536;-71
2022/04/15 02:58:57;;;;;;;9.60;5.20;;;9.80;99.90;;;;;;5000909;28;20540;-71
2022/04/15 03:01:24;;;;;;;6.53;4.30;;;9.80;99.90;;;;;;5002350;28;20988;-71
2022/04/15 03:03:50;;;;;;;6.47;3.80;;;9.70;99.90;;;;;;4998199;28;20450;-71
2022/04/15 03:06:18;;;;;;;7.13;5.00;;;9.60;99.90;;;;;;5005910;28;20446;-72
2022/04/15 03:08:45;;;;;;;13.90;4.87;;;9.70;99.90;;;;;;4994663;28;20464;-71
2022/04/15 03:11:12;;;;;;;8.93;5.53;;;9.70;99.90;;;;;;4995893;28;21054;-71
2022/04/15 03:13:39;;;;;;;6.57;4.50;;;9.70;99.90;;;;;;5002392;28;20560;-71
2022/04/15 03:16:06;;;;;;;7.50;4.83;;;9.70;99.90;;;;;;4997280;28;21971;-72
2022/04/15 03:18:32;;;;;;;6.80;4.30;;;9.70;99.90;;;;;;5003177;28;20902;-71
2022/04/15 03:20:59;;;;;;;7.00;5.40;;;9.60;99.90;;;;;;5005960;28;20479;-71
2022/04/15 03:23:27;;;;;;;9.33;4.63;;;9.60;99.90;;;;;;5010940;28;20450;-71
2022/04/15 03:25:54;;;;;;;8.00;5.37;;;9.60;99.90;;;;;;5004797;28;20483;-71
2022/04/15 03:28:21;;;;;;;7.80;5.30;;;9.50;99.90;;;;;;5006073;28;21870;-71
2022/04/15 03:30:48;;;;;;;7.70;5.63;;;9.50;99.90;;;;;;5007535;28;20458;-71
2022/04/15 03:33:14;;;;;;;6.33;4.23;;;9.50;99.90;;;;;;5008580;28;20529;-70
2022/04/15 03:35:41;;;;;;;9.00;4.27;;;9.50;99.90;;;;;;5007699;28;20884;-70
2022/04/15 03:38:08;;;;;;;9.70;5.10;;;9.50;99.90;;;;;;5004816;28;20992;-71
2022/04/15 03:40:36;;;;;;;5.80;5.00;;;9.40;99.90;;;;;;5004618;28;20566;-72
2022/04/15 03:43:03;;;;;;;13.80;6.40;;;9.30;99.90;;;;;;5006324;28;20644;-71
2022/04/15 03:45:30;;;;;;;10.80;5.33;;;9.30;99.90;;;;;;4998206;28;20461;-72
2022/04/15 03:47:57;;;;;;;11.03;5.47;;;9.20;99.90;;;;;;5010152;28;20543;-72
2022/04/15 03:50:24;;;;;;;7.37;4.60;;;9.30;99.90;;;;;;5005654;28;20828;-72
2022/04/15 03:52:51;;;;;;;7.60;5.37;;;9.20;99.90;;;;;;5009148;28;20488;-71
2022/04/15 03:55:20;;;;;;;8.23;5.57;;;9.20;99.90;;;;;;5013703;28;20495;-71
2022/04/15 03:57:51;;;;;;;8.17;4.63;;;9.20;99.90;;;;;;5009125;28;20460;-71
2022/04/15 04:00:19;;;;;;;8.20;5.17;;;9.10;99.90;;;;;;5009141;28;20443;-71
2022/04/15 04:02:47;;;;;;;6.53;4.63;;;9.10;99.90;;;;;;5005890;28;20548;-71
2022/04/15 04:05:15;;;;;;;13.53;5.80;;;9.10;99.90;;;;;;5007434;28;20444;-71
2022/04/15 04:07:41;;;;;;;9.03;6.00;;;9.20;99.90;;;;;;5009352;28;20480;-71
2022/04/15 04:10:10;;;;;;;11.30;6.17;;;9.20;99.90;;;;;;5004715;28;20460;-72
2022/04/15 04:12:37;;;;;;;11.30;5.10;;;9.10;99.90;;;;;;4999749;28;20478;-72
2022/04/15 04:15:09;;;;;;;5.40;4.00;;;9.30;99.90;;;;;;5013255;28;20438;-71
2022/04/15 04:17:36;;;;;;;8.27;4.40;;;9.40;99.90;;;;;;5007701;28;20975;-71
2022/04/15 04:20:05;;;;;;;9.57;4.97;;;9.40;99.90;;;;;;5006206;28;20488;-71
2022/04/15 04:22:32;;;;;;;11.47;5.83;;;9.20;99.90;;;;;;5007100;28;20438;-71
2022/04/15 04:24:59;;;;;;;5.57;4.63;;;9.10;99.90;;;;;;5003430;28;20468;-71
2022/04/15 04:27:26;;;;;;;8.87;4.80;;;9.00;99.90;;;;;;5011118;28;20819;-71
2022/04/15 04:29:56;;;;;;;9.43;4.43;;;9.00;99.90;;;;;;5008452;28;20454;-71
2022/04/15 04:32:29;;;;;;;8.87;5.93;;;9.10;99.90;;;;;;5006906;28;20464;-70
2022/04/15 04:34:56;;;;;;;9.17;5.90;;;9.30;99.90;;;;;;5008739;28;20487;-72
2022/04/15 04:37:23;;;;;;;7.77;5.30;;;9.50;99.90;;;;;;5005050;28;20446;-70
2022/04/15 04:39:50;;;;;;;13.87;5.30;;;9.70;99.90;;;;;;5000244;28;20588;-71
2022/04/15 04:42:17;;;;;;;12.30;6.60;;;9.70;99.90;;;;;;4996727;28;20561;-71
2022/04/15 04:44:47;;;;;;;6.10;4.57;;;9.60;99.90;;;;;;5001572;28;20500;-71
2022/04/15 04:47:14;;;;;;;6.57;4.57;;;9.80;99.90;;;;;;5003818;28;20786;-71
2022/04/15 04:49:42;;;;;;;9.93;5.53;;;9.90;99.90;;;;;;5007433;28;20479;-72
2022/04/15 04:52:10;;;;;;;6.03;3.73;;;9.90;99.90;;;;;;5000522;28;20546;-71
2022/04/15 04:54:38;;;;;;;9.00;4.00;;;9.90;99.90;;;;;;5003656;28;21842;-71
2022/04/15 04:57:05;;;;;;;8.73;4.67;;;9.90;99.90;;;;;;4985062;28;20499;-71
2022/04/15 04:59:33;;;;;;;9.40;5.60;;;9.90;99.90;;;;;;4993373;28;20436;-71
2022/04/15 05:02:00;;;;;;;10.47;5.90;;;10.00;99.90;;;;;;5002125;28;21133;-71
2022/04/15 05:04:27;;;;;;;6.90;4.83;;;10.10;99.90;;;;;;5013467;28;20466;-71
2022/04/15 05:06:56;;;;;;;9.10;5.17;;;10.10;99.90;;;;;;5001000;28;20436;-71
2022/04/15 05:09:23;;;;;;;8.10;5.67;;;9.90;99.90;;;;;;5010529;28;20467;-71
2022/04/15 05:11:51;;;;;;;7.93;5.20;;;9.90;99.90;;;;;;5006044;28;20446;-71
2022/04/15 05:14:18;;;;;;;7.13;4.67;;;9.80;99.90;;;;;;4995299;28;20467;-70
2022/04/15 05:16:45;;;;;;;10.13;5.43;;;10.00;99.90;;;;;;5005630;28;20438;-71
2022/04/15 05:19:11;;;;;;;10.60;5.27;;;10.00;99.90;;;;;;5012962;28;20863;-71
2022/04/15 05:21:38;;;;;;;7.83;4.70;;;10.10;99.90;;;;;;5019691;28;20440;-71
2022/04/15 05:24:08;;;;;;;6.87;5.50;;;10.30;99.90;;;;;;5014432;28;20566;-71
2022/04/15 05:26:34;;;;;;;12.20;5.10;;;10.00;99.90;;;;;;5015385;28;20468;-71
2022/04/15 05:29:01;;;;;;;13.70;6.60;;;10.00;99.90;;;;;;5017911;28;20529;-72
2022/04/15 05:31:35;;;;;;;13.57;5.73;;;10.10;99.90;;;;;;5015118;28;20501;-71
2022/04/15 05:34:02;;;;;;;10.17;4.10;;;10.00;99.90;;;;;;5003788;28;20484;-71
2022/04/15 05:36:28;;;;;;;12.07;5.03;;;10.00;99.90;;;;;;5014554;28;20452;-72
2022/04/15 05:38:55;;;;;;;10.80;6.40;;;10.10;99.90;;;;;;5011746;28;20431;-72
2022/04/15 05:41:23;;;;;;;11.47;5.60;;;10.20;99.90;;;;;;5013371;28;20435;-71
2022/04/15 05:43:50;;;;;;;9.57;4.53;;;10.10;99.90;;;;;;5008823;28;20455;-71
2022/04/15 05:46:20;;;;;;;9.77;4.83;;;10.00;99.90;;;;;;5013090;28;20517;-71
2022/04/15 05:48:46;;;;;;;8.77;5.40;;;9.90;99.90;;;;;;5014252;28;20984;-71
2022/04/15 05:51:13;;;;;;;8.93;6.50;;;10.00;99.90;;;;;;5017283;28;20522;-72
2022/04/15 05:53:40;;;;;;;9.63;5.20;;;10.00;99.90;;;;;;5005554;28;21101;-71
2022/04/15 05:56:06;;;;;;;10.40;6.37;;;9.90;99.90;;;;;;5012594;28;20460;-71
2022/04/15 05:58:39;;;;;;;9.57;5.93;;;9.90;99.90;;;;;;5003493;28;20469;-71
2022/04/15 06:01:09;;;;;;;5.60;4.73;;;10.00;99.90;;;;;;5005941;28;20792;-71
2022/04/15 06:03:37;;;;;;;9.03;4.90;;;10.10;99.90;;;;;;5005769;28;20448;-71
2022/04/15 06:06:04;;;;;;;6.30;4.27;;;10.20;99.90;;;;;;5003940;28;20918;-71
2022/04/15 06:08:31;;;;;;;7.80;5.00;;;10.20;99.90;;;;;;4999289;28;20458;-71
2022/04/15 06:11:01;;;;;;;7.90;4.20;;;10.30;99.90;;;;;;5006843;28;20472;-71
2022/04/15 06:13:27;;;;;;;7.30;3.97;;;10.20;99.90;;;;;;5002427;28;21116;-71
2022/04/15 06:15:56;;;;;;;8.10;5.33;;;10.20;99.90;;;;;;5000814;28;20457;-72
2022/04/15 06:18:25;;;;;;;7.73;4.57;;;10.10;99.90;;;;;;4993524;28;20534;-71
2022/04/15 06:20:52;;;;;;;11.23;5.23;;;10.20;99.90;;;;;;4991496;28;20549;-71
2022/04/15 06:23:20;;;;;;;6.80;4.00;;;10.30;99.90;;;;;;4992577;28;20502;-72
2022/04/15 06:25:47;;;;;;;5.77;3.80;;;10.20;99.90;;;;;;4991386;28;20540;-72
2022/04/15 06:28:14;;;;;;;3.33;2.67;;;10.20;99.90;;;;;;4997651;28;20466;-72
2022/04/15 06:30:42;;;;;;;5.17;3.00;;;10.10;99.90;;;;;;4995062;28;20854;-71
2022/04/15 06:33:10;;;;;;;9.50;3.63;;;10.20;99.90;;;;;;5003393;28;20563;-72
2022/04/15 06:35:39;;;;;;;3.67;3.37;;;10.20;99.90;;;;;;5002934;28;20520;-72
2022/04/15 06:38:06;;;;;;;6.00;3.27;;;10.30;99.90;;;;;;5002637;28;20431;-72
2022/04/15 06:40:33;;;;;;;6.17;2.50;;;10.40;99.90;;;;;;5005075;28;20468;-72
2022/04/15 06:43:00;;;;;;;4.00;3.17;;;10.50;99.90;;;;;;5001523;28;20485;-71
2022/04/15 06:45:27;;;;;;;5.27;3.17;;;10.60;99.90;;;;;;5008727;28;20794;-72
2022/04/15 06:47:54;;;;;;;5.23;2.80;;;10.60;99.90;;;;;;4999064;28;20456;-72
2022/04/15 06:50:22;;;;;;;5.63;3.90;;;10.70;99.90;;;;;;4996719;28;20721;-72
2022/04/15 06:52:49;;;;;;;4.73;2.53;;;10.80;99.90;;;;;;5003283;28;20916;-72
2022/04/15 06:55:16;;;;;;;3.33;2.67;;;11.00;99.90;;;;;;5000620;28;20464;-72
2022/04/15 06:57:47;;;;;;;2.77;2.53;;;11.00;99.90;;;;;;4993740;28;20717;-71
2022/04/15 07:00:16;;;;;;;3.63;3.07;;;11.20;99.90;;;;;;4992609;28;20916;-70
2022/04/15 07:02:43;;;;;;;4.17;2.60;;;11.40;99.90;;;;;;4998741;28;20999;-71
2022/04/15 07:05:10;;;;;;;2.60;2.40;;;11.10;99.90;;;;;;4998960;28;20447;-71
2022/04/15 07:07:39;;;;;;;4.87;2.40;;;11.10;99.90;;;;;;5002584;28;20442;-71
2022/04/15 07:10:07;;;;;;;2.07;1.87;;;10.80;99.90;;;;;;4999195;28;20526;-72
2022/04/15 07:12:34;;;;;;;5.37;2.50;;;11.10;99.90;;;;;;5000429;28;20461;-73
2022/04/15 07:15:01;;;;;;;3.40;3.00;;;11.50;99.90;;;;;;4994283;28;20793;-71
2022/04/15 07:17:28;;;;;;;3.93;2.90;;;11.60;99.90;;;;;;4993049;28;20511;-71
2022/04/15 07:19:55;;;;;;;4.63;2.40;;;11.70;99.90;;;;;;4989829;28;20851;-72
2022/04/15 07:22:22;;;;;;;5.70;2.20;;;11.90;99.90;;;;;;5001468;28;20472;-73
2022/04/15 07:24:50;;;;;;;3.80;2.00;;;11.90;99.90;;;;;;4999651;28;20480;-73
2022/04/15 07:27:18;;;;;;;5.53;2.40;;;11.80;99.90;;;;;;4996914;28;20496;-72
2022/04/15 07:29:45;;;;;;;2.43;1.77;;;11.60;99.90;;;;;;4994533;28;20508;-73
2022/04/15 07:32:13;;;;;;;3.40;2.67;;;11.40;99.90;;;;;;4994658;28;20933;-72
2022/04/15 07:34:40;;;;;;;6.13;4.00;;;11.20;99.90;;;;;;4998860;28;20543;-72
2022/04/15 07:37:06;;;;;;;2.70;2.20;;;11.30;99.90;;;;;;4998275;28;20439;-73
2022/04/15 07:39:33;;;;;;;2.50;2.00;;;11.40;99.90;;;;;;4997483;28;20550;-73
2022/04/15 07:42:01;;;;;;;2.60;1.90;;;11.50;99.90;;;;;;4992903;28;20431;-72
2022/04/15 07:44:28;;;;;;;4.47;2.87;;;11.60;99.90;;;;;;4998331;28;20459;-71
2022/04/15 07:46:56;;;;;;;4.47;2.00;;;11.60;99.90;;;;;;5001603;28;20443;-72
2022/04/15 07:49:23;;;;;;;9.07;3.30;;;11.50;99.90;;;;;;5004708;28;20456;-71
2022/04/15 07:51:52;;;;;;;3.80;3.00;;;11.40;99.90;;;;;;4999399;28;20443;-72
2022/04/15 07:54:19;;;;;;;5.37;3.57;;;11.00;99.90;;;;;;4991078;28;20467;-72
2022/04/15 07:56:46;;;;;;;3.10;2.73;;;10.90;99.90;;;;;;5000608;28;20522;-72
2022/04/15 07:59:14;;;;;;;2.87;2.40;;;11.10;99.90;;;;;;5000701;28;21263;-72
2022/04/15 08:01:40;;;;;;;3.43;3.00;;;11.10;99.90;;;;;;5002701;28;20529;-72
2022/04/15 08:04:07;;;;;;;3.77;3.23;;;11.20;99.90;;;;;;5012887;28;20471;-72
2022/04/15 08:06:34;;;;;;;5.00;4.13;;;11.10;99.90;;;;;;5000223;28;20530;-73
2022/04/15 08:09:00;;;;;;;3.93;3.63;;;11.10;99.90;;;;;;4990311;28;21597;-73
2022/04/15 08:11:29;;;;;;;5.60;4.30;;;10.80;99.90;;;;;;4995032;28;20465;-72
2022/04/15 08:13:56;;;;;;;4.50;3.70;;;10.80;99.90;;;;;;5006209;28;20515;-72
2022/04/15 08:16:25;;;;;;;5.37;4.13;;;10.80;99.90;;;;;;5002206;28;21037;-71
2022/04/15 08:18:54;;;;;;;3.60;2.93;;;10.80;99.90;;;;;;4993893;28;20479;-72
2022/04/15 08:21:21;;;;;;;5.23;3.63;;;10.70;99.90;;;;;;5002589;28;21234;-72
2022/04/15 08:23:48;;;;;;;7.13;4.03;;;10.60;99.90;;;;;;5003309;28;20518;-72
2022/04/15 08:26:15;;;;;;;6.63;3.67;;;10.70;99.90;;;;;;5003373;28;20523;-73
2022/04/15 08:28:42;;;;;;;5.83;3.27;;;10.60;99.90;;;;;;4998776;28;20493;-72
2022/04/15 08:31:09;;;;;;;5.00;3.70;;;10.60;99.90;;;;;;4996339;28;20456;-72
2022/04/15 08:33:37;;;;;;;4.23;2.87;;;10.80;99.90;;;;;;5005059;28;20485;-72
2022/04/15 08:36:05;;;;;;;4.27;3.07;;;10.90;99.90;;;;;;4999962;28;20456;-72
2022/04/15 08:38:32;;;;;;;4.90;3.73;;;10.80;99.90;;;;;;5004518;28;20438;-72
2022/04/15 08:40:59;;;;;;;6.70;4.40;;;10.70;99.90;;;;;;5004561;28;20936;-73
2022/04/15 08:43:29;;;;;;;11.20;3.90;;;10.60;99.90;;;;;;5001562;28;20462;-72
2022/04/15 08:45:56;;;;;;;7.13;4.43;;;10.60;99.90;;;;;;5006010;28;20484;-72
2022/04/15 08:48:24;;;;;;;2.80;2.20;;;10.60;99.90;;;;;;4998951;28;21202;-72
2022/04/15 08:50:52;;;;;;;3.27;2.33;;;10.60;99.90;;;;;;5002001;28;20507;-73
2022/04/15 08:53:20;;;;;;;4.53;3.27;;;10.90;99.90;;;;;;5000477;28;21898;-71
2022/04/15 08:55:47;;;;;;;4.30;3.90;;;10.90;99.90;;;;;;4996688;28;20463;-72
2022/04/15 08:58:13;;;;;;;6.30;3.80;;;11.20;99.90;;;;;;4992329;28;21575;-72
2022/04/15 09:00:40;;;;;;;6.43;2.93;;;11.10;99.90;;;;;;4999555;28;20496;-72
2022/04/15 09:03:07;;;;;;;4.73;3.30;;;11.10;99.90;;;;;;4999908;28;21248;-72
2022/04/15 09:05:34;;;;;;;6.33;2.67;;;11.10;99.90;;;;;;4997472;28;20449;-73
2022/04/15 09:08:11;;;;;;;4.53;2.53;;;11.10;99.90;;;;;;5006656;28;20439;-73
2022/04/15 09:10:44;;;;;;;7.93;3.90;;;11.10;99.90;;;;;;5000078;28;20851;-72
2022/04/15 09:13:23;;;;;;;2.33;2.00;;;11.10;99.90;;;;;;4998048;28;20492;-72
2022/04/15 09:15:50;;;;;;;4.93;3.67;;;11.10;99.90;;;;;;5008599;28;20455;-74
2022/04/15 09:18:31;;;;;;;4.50;3.43;;;11.00;99.90;;;;;;5019492;28;20921;-73
2022/04/15 09:21:17;;;;;;;5.63;3.93;;;11.00;99.90;;;;;;5015849;28;20460;-72
2022/04/15 09:23:48;;;;;;;5.57;2.93;;;11.00;99.90;;;;;;5009891;28;20973;-73
2022/04/15 09:26:15;;;;;;;9.00;3.37;;;11.20;99.90;;;;;;5000772;28;20432;-73
2022/04/15 09:28:42;;;;;;;4.87;3.13;;;11.50;99.90;;;;;;5014284;28;20606;-72
2022/04/15 09:31:14;;;;;;;5.80;4.27;;;11.50;99.90;;;;;;5010381;28;21472;-75
2022/04/15 09:33:51;;;;;;;5.70;2.70;;;11.60;99.90;;;;;;5005783;28;20455;-74
2022/04/15 09:36:29;;;;;;;9.30;3.13;;;11.70;99.90;;;;;;5009153;28;20455;-73
2022/04/15 09:39:04;;;;;;;5.93;3.30;;;11.90;99.90;;;;;;5000762;28;20491;-74
2022/04/15 09:41:31;;;;;;;4.40;3.47;;;11.70;99.90;;;;;;5006927;28;20435;-72
2022/04/15 09:44:00;;;;;;;3.90;2.67;;;11.40;99.90;;;;;;5008761;28;20499;-71
2022/04/15 09:46:30;;;;;;;2.60;2.10;;;11.60;99.90;;;;;;5006056;28;20548;-74
2022/04/15 09:49:07;;;;;;;3.27;2.37;;;11.70;99.90;;;;;;5004950;28;20465;-73
2022/04/15 09:51:38;;;;;;;3.33;2.60;;;11.70;99.90;;;;;;5006786;28;20988;-73
2022/04/15 09:54:11;;;;;;;5.37;3.20;;;11.90;99.90;;;;;;5005230;28;20497;-72
2022/04/15 09:56:39;;;;;;;3.30;2.80;;;11.80;99.90;;;;;;5006683;28;20538;-73
2022/04/15 09:59:08;;;;;;;3.90;3.20;;;11.80;99.90;;;;;;5004119;28;20520;-73
2022/04/15 10:01:45;;;;;;;4.57;2.80;;;11.90;99.90;;;;;;5004314;28;20443;-71
2022/04/15 10:04:12;;;;;;;5.00;4.33;;;11.90;99.90;;;;;;5004590;28;20494;-72
2022/04/15 10:06:42;;;;;;;4.37;2.70;;;12.10;99.90;;;;;;5004372;28;20460;-72
2022/04/15 10:09:12;;;;;;;3.17;2.00;;;12.30;99.90;;;;;;5006274;28;20981;-73
2022/04/15 10:11:40;;;;;;;6.70;3.10;;;12.00;99.90;;;;;;5007678;28;20856;-73
2022/04/15 10:14:09;;;;;;;3.37;2.70;;;11.70;99.90;;;;;;5007299;28;20527;-71
2022/04/15 10:16:38;;;;;;;3.13;2.20;;;11.80;99.90;;;;;;5004916;28;20883;-71
2022/04/15 10:19:06;;;;;;;4.10;2.40;;;12.00;99.90;;;;;;5004839;28;20428;-73
2022/04/15 10:21:35;;;;;;;4.87;2.67;;;12.10;99.90;;;;;;5005443;28;21172;-70
2022/04/15 10:24:02;;;;;;;2.90;2.10;;;12.50;99.90;;;;;;5002605;28;20450;-72
2022/04/15 10:26:35;;;;;;;3.53;1.70;;;12.60;99.90;;;;;;4997689;28;21165;-75
2022/04/15 10:29:04;;;;;;;5.67;2.80;;;12.20;99.90;;;;;;5000584;28;20460;-73
2022/04/15 10:31:38;;;;;;;3.10;2.67;;;12.30;99.90;;;;;;5013388;28;20465;-71
2022/04/15 10:34:10;;;;;;;2.73;2.20;;;12.90;99.90;;;;;;5012344;28;20480;-73
2022/04/15 10:36:38;;;;;;;2.93;1.90;;;12.70;99.90;;;;;;5002681;28;20460;-72
2022/04/15 10:39:22;;;;;;;2.77;1.87;;;12.40;99.90;;;;;;5008443;28;20454;-73
2022/04/15 10:42:05;;;;;;;4.23;2.23;;;12.20;99.90;;;;;;5013856;28;20533;-71
2022/04/15 10:44:39;;;;;;;4.10;2.23;;;12.10;99.90;;;;;;5013745;28;20588;-72
2022/04/15 10:47:12;;;;;;;3.00;2.73;;;12.40;99.90;;;;;;5014568;28;20441;-72
2022/04/15 10:49:40;;;;;;;2.70;2.13;;;12.90;99.90;;;;;;5011121;28;20954;-71
2022/04/15 10:52:21;;;;;;;2.13;1.90;;;13.10;99.90;;;;;;5005053;28;20600;-72
2022/04/15 10:54:51;;;;;;;3.07;2.10;;;12.50;99.90;;;;;;5006850;28;20549;-72
2022/04/15 10:57:21;;;;;;;4.57;2.70;;;12.40;99.90;;;;;;5017354;28;20431;-73
2022/04/15 11:02:41;;;;;;;3.30;2.70;;;12.80;99.90;;;;;;5012295;28;20460;-72
2022/04/15 11:05:11;;;;;;;3.27;2.40;;;13.10;99.90;;;;;;5011996;28;20469;-73
2022/04/15 11:07:48;;;;;;;4.90;3.40;;;13.30;99.90;;;;;;5011613;28;20466;-72
2022/04/15 11:10:40;;;;;;;5.10;3.13;;;13.30;99.90;;;;;;5004344;28;20465;-73
2022/04/15 11:13:09;;;;;;;4.50;2.73;;;13.50;99.90;;;;;;5017879;28;20473;-72
2022/04/15 11:15:57;;;;;;;2.93;2.00;;;13.70;99.90;;;;;;5010710;28;20538;-73
2022/04/15 11:18:24;;;;;;;4.80;2.50;;;13.80;99.90;;;;;;5003377;28;20437;-72
2022/04/15 11:20:52;;;;;;;5.63;2.73;;;13.70;99.90;;;;;;4996772;28;20520;-73
2022/04/15 11:23:18;;;;;;;5.13;3.37;;;13.70;99.90;;;;;;4994109;28;21099;-72
2022/04/15 11:25:46;;;;;;;6.50;3.57;;;13.70;99.90;;;;;;4997463;28;20488;-72
2022/04/15 11:28:14;;;;;;;10.47;3.27;;;13.90;99.90;;;;;;5000875;28;20460;-71
2022/04/15 11:30:40;;;;;;;5.23;3.97;;;13.90;99.90;;;;;;5001239;28;20468;-72
2022/04/15 11:33:07;;;;;;;7.13;5.23;;;13.80;99.90;;;;;;5004914;28;21008;-72
2022/04/15 11:35:36;;;;;;;4.67;2.93;;;13.70;99.90;;;;;;4998912;28;20609;-72
2022/04/15 11:39:22;;;;;;;6.23;2.90;;;13.70;99.90;;;;;;5047567;27;20691;-71
2022/04/15 11:41:51;;;;;;;10.40;3.20;;;13.80;99.90;;;;;;5060643;28;20429;-72
2022/04/15 11:44:18;;;;;;;5.73;3.17;;;13.60;99.90;;;;;;5049512;28;20474;-71
2022/04/15 11:46:48;;;;;;;8.00;3.20;;;14.00;99.90;;;;;;5066313;28;20807;-72
2022/04/15 11:49:17;;;;;;;4.33;2.67;;;14.30;99.90;;;;;;5065741;28;20478;-72
2022/04/15 11:51:49;;;;;;;4.07;2.70;;;14.30;99.90;;;;;;5057059;28;20592;-72
2022/04/15 11:54:16;;;;;;;6.60;3.80;;;14.30;99.90;;;;;;5069353;28;20481;-72
2022/04/15 11:56:45;;;;;;;4.73;2.93;;;14.40;99.90;;;;;;5062944;28;20466;-72
2022/04/15 11:59:12;;;;;;;5.00;3.57;;;14.40;99.90;;;;;;5061189;28;20555;-72
2022/04/15 12:01:39;;;;;;;3.40;2.90;;;14.60;99.90;;;;;;5059456;28;20498;-71
2022/04/15 12:04:06;;;;;;;4.27;3.27;;;14.70;99.90;;;;;;5044216;28;21053;-72
2022/04/15 12:06:40;;;;;;;5.57;2.97;;;14.80;99.90;;;;;;5053672;28;20457;-72
2022/04/15 12:09:07;;;;;;;2.87;2.40;;;15.10;99.90;;;;;;5061737;28;20919;-72
2022/04/15 12:11:33;;;;;;;3.03;2.17;;;15.10;99.90;;;;;;5060999;28;20473;-72
2022/04/15 12:14:03;;;;;;;5.27;2.57;;;15.10;99.90;;;;;;5067538;28;20512;-72
2022/04/15 12:16:32;;;;;;;4.53;3.50;;;15.00;99.90;;;;;;5065298;28;20461;-72
2022/04/15 12:19:00;;;;;;;3.40;3.00;;;15.00;99.90;;;;;;5060046;28;20481;-72
2022/04/15 12:21:28;;;;;;;5.67;4.00;;;14.70;99.90;;;;;;5062197;28;20465;-71
2022/04/15 12:24:06;;;;;;;11.40;4.00;;;14.90;99.90;;;;;;5062347;28;20613;-73
2022/04/15 12:26:43;;;;;;;4.90;3.27;;;14.90;99.90;;;;;;5061906;28;20978;-72
2022/04/15 12:32:16;;;;;;;5.90;3.47;;;14.50;99.90;;;;;;5048183;28;20484;-72
2022/04/15 12:34:43;;;;;;;5.10;3.07;;;14.50;99.90;;;;;;5060065;28;20481;-73
2022/04/15 12:37:31;;;;;;;4.53;3.70;;;14.40;99.90;;;;;;5050527;28;20458;-73
2022/04/15 12:39:58;;;;;;;5.00;3.50;;;13.80;99.90;;;;;;5051415;28;20463;-70
2022/04/15 12:42:29;;;;;;;11.17;5.90;;;13.80;99.90;;;;;;5056333;28;20463;-72
2022/04/15 12:44:57;;;;;;;4.20;3.20;;;13.70;99.90;;;;;;5058482;28;20543;-73
2022/04/15 12:47:26;;;;;;;4.97;3.17;;;13.80;99.90;;;;;;5073176;28;21100;-74
2022/04/15 12:49:53;;;;;;;7.10;4.47;;;14.00;99.90;;;;;;5063059;28;20954;-71
2022/04/15 12:52:20;;;;;;;6.33;4.90;;;14.20;99.90;;;;;;5047517;28;20458;-72
2022/04/15 12:54:58;;;;;;;3.87;3.20;;;13.90;99.90;;;;;;5052326;28;20490;-72
2022/04/15 12:57:31;;;;;;;6.00;4.60;;;14.00;99.90;;;;;;5052778;28;20868;-72
2022/04/15 13:00:00;;;;;;;7.60;4.20;;;14.10;99.90;;;;;;5051751;28;20458;-72
2022/04/15 13:02:29;;;;;;;6.27;4.77;;;14.40;99.90;;;;;;5045084;28;20437;-72